createdAt,value
2023-04-26T00:01:48.104Z,99.90
2023-04-26T00:04:19.761Z,99.90
2023-04-26T00:06:51.944Z,99.90
2023-04-26T00:09:23.432Z,99.90
2023-04-26T00:11:54.868Z,99.90
2023-04-26T00:14:26.833Z,99.90
2023-04-26T00:16:58.274Z,99.90
2023-04-26T00:19:29.817Z,99.90
2023-04-26T00:22:01.302Z,99.90
2023-04-26T00:24:33.107Z,99.90
2023-04-26T00:27:07.124Z,99.90
2023-04-26T00:29:38.912Z,99.90
2023-04-26T00:32:10.444Z,99.90
2023-04-26T00:34:41.960Z,99.90
2023-04-26T00:37:14.026Z,99.90
2023-04-26T00:39:45.531Z,99.90
2023-04-26T00:42:17.022Z,99.90
2023-04-26T00:44:50.422Z,99.90
2023-04-26T00:47:21.792Z,99.90
2023-04-26T00:49:53.368Z,99.90
2023-04-26T00:52:25.399Z,99.90
2023-04-26T00:54:58.143Z,99.90
2023-04-26T00:57:29.641Z,99.90
2023-04-26T01:00:01.169Z,99.90
2023-04-26T01:02:32.923Z,99.90
2023-04-26T01:05:05.722Z,99.90
2023-04-26T01:07:38.511Z,99.90
2023-04-26T01:10:11.822Z,99.90
2023-04-26T01:12:43.200Z,99.90
2023-04-26T01:15:14.674Z,99.90
2023-04-26T01:17:49.711Z,99.90
2023-04-26T01:20:21.438Z,99.90
2023-04-26T01:22:52.972Z,99.90
2023-04-26T01:25:25.309Z,99.90
2023-04-26T01:27:57.143Z,99.90
2023-04-26T01:30:27.426Z,99.90
2023-04-26T01:32:58.839Z,99.90
2023-04-26T01:35:31.298Z,99.90
2023-04-26T01:38:04.470Z,99.90
2023-04-26T01:40:36.216Z,99.90
2023-04-26T01:43:07.808Z,99.90
2023-04-26T01:45:39.330Z,99.90
2023-04-26T01:48:10.689Z,99.90
2023-04-26T01:50:42.214Z,99.90
2023-04-26T01:53:13.708Z,99.90
2023-04-26T01:55:45.128Z,99.90
2023-04-26T01:58:16.721Z,99.90
2023-04-26T02:00:48.224Z,99.90
2023-04-26T02:03:21.317Z,99.90
2023-04-26T02:05:53.386Z,99.90
2023-04-26T02:08:24.855Z,99.90
2023-04-26T02:10:56.468Z,99.90
2023-04-26T02:13:28.282Z,99.90
2023-04-26T02:15:59.968Z,99.90
2023-04-26T02:18:31.760Z,99.90
2023-04-26T02:21:03.305Z,99.90
2023-04-26T02:23:34.778Z,99.90
2023-04-26T02:26:06.610Z,99.90
2023-04-26T02:28:38.147Z,99.90
2023-04-26T02:31:10.107Z,99.90
2023-04-26T02:33:41.547Z,99.90
2023-04-26T02:36:13.329Z,99.90
2023-04-26T02:38:45.070Z,99.90
2023-04-26T02:41:16.652Z,99.90
2023-04-26T02:43:48.183Z,99.90
2023-04-26T02:46:19.744Z,99.90
2023-04-26T02:48:51.900Z,99.90
2023-04-26T02:51:24.172Z,99.90
2023-04-26T02:53:55.741Z,99.90
2023-04-26T02:56:27.397Z,99.90
2023-04-26T02:58:58.810Z,99.90
2023-04-26T03:01:30.395Z,99.90
2023-04-26T03:04:01.936Z,99.90
2023-04-26T03:06:33.794Z,99.90
2023-04-26T03:09:06.182Z,99.90
2023-04-26T03:11:37.748Z,99.90
2023-04-26T03:14:09.130Z,99.90
2023-04-26T03:16:44.295Z,99.90
2023-04-26T03:19:15.916Z,99.90
2023-04-26T03:21:47.384Z,99.90
2023-04-26T03:24:18.769Z,99.90
2023-04-26T03:26:50.318Z,99.90
2023-04-26T03:29:21.798Z,99.90
2023-04-26T03:31:53.293Z,99.90
2023-04-26T03:34:24.857Z,99.90
2023-04-26T03:36:56.937Z,99.90
2023-04-26T03:39:28.532Z,99.90
2023-04-26T03:42:00.223Z,99.90
2023-04-26T03:44:31.700Z,99.90
2023-04-26T03:47:04.844Z,99.90
2023-04-26T03:49:36.224Z,99.90
2023-04-26T03:52:07.870Z,99.90
2023-04-26T03:54:39.343Z,99.90
2023-04-26T03:57:10.827Z,99.90
2023-04-26T03:59:42.646Z,99.90
2023-04-26T04:02:14.895Z,99.90
2023-04-26T04:04:47.200Z,99.90
2023-04-26T04:07:19.311Z,99.90
2023-04-26T04:09:51.151Z,99.90
2023-04-26T04:12:23.523Z,99.90
2023-04-26T04:14:55.103Z,99.90
2023-04-26T04:17:26.724Z,99.90
2023-04-26T04:19:58.573Z,99.90
2023-04-26T04:22:30.049Z,99.90
2023-04-26T04:25:01.564Z,99.90
2023-04-26T04:27:33.242Z,99.90
2023-04-26T04:30:07.145Z,99.90
2023-04-26T04:32:39.527Z,99.90
2023-04-26T04:35:11.726Z,99.90
2023-04-26T04:37:45.486Z,99.90
2023-04-26T04:40:17.367Z,99.90
2023-04-26T04:42:49.392Z,99.90
2023-04-26T04:45:22.086Z,99.90
2023-04-26T04:47:54.314Z,99.90
2023-04-26T04:50:25.968Z,99.90
2023-04-26T04:52:57.403Z,99.90
2023-04-26T04:55:29.133Z,99.90
2023-04-26T04:58:01.791Z,99.90
2023-04-26T05:00:34.262Z,99.90
2023-04-26T05:03:05.866Z,99.90
2023-04-26T05:05:37.599Z,99.90
2023-04-26T05:08:10.013Z,99.90
2023-04-26T05:10:41.615Z,99.90
2023-04-26T05:13:13.081Z,99.90
2023-04-26T05:15:44.598Z,99.90
2023-04-26T05:18:15.988Z,99.90
2023-04-26T05:20:47.486Z,99.90
2023-04-26T05:23:18.935Z,99.90
2023-04-26T05:25:51.299Z,99.90
2023-04-26T05:28:22.751Z,99.90
2023-04-26T05:30:54.235Z,99.90
2023-04-26T05:33:25.802Z,99.90
2023-04-26T05:35:58.086Z,99.90
2023-04-26T05:38:30.309Z,99.90
2023-04-26T05:41:02.034Z,99.90
2023-04-26T05:43:33.578Z,99.90
2023-04-26T05:46:05.104Z,99.90
2023-04-26T05:48:36.584Z,99.90
2023-04-26T05:51:08.388Z,99.90
2023-04-26T05:53:39.869Z,99.90
2023-04-26T05:56:11.463Z,99.90
2023-04-26T05:58:43.721Z,99.90
2023-04-26T06:01:15.408Z,99.90
2023-04-26T06:03:48.460Z,99.90
2023-04-26T06:06:20.814Z,99.90
2023-04-26T06:08:52.996Z,99.90
2023-04-26T06:11:24.507Z,99.90
2023-04-26T06:13:56.716Z,99.90
2023-04-26T06:16:28.196Z,99.90
2023-04-26T06:18:59.743Z,99.90
2023-04-26T06:21:31.949Z,99.90
2023-04-26T06:24:03.851Z,99.90
2023-04-26T06:26:35.329Z,99.90
2023-04-26T06:29:07.665Z,99.90
2023-04-26T06:31:39.369Z,99.90
2023-04-26T06:34:10.958Z,99.90
2023-04-26T06:36:42.389Z,99.90
2023-04-26T06:39:14.198Z,99.90
2023-04-26T06:41:45.723Z,99.90
2023-04-26T06:44:17.485Z,99.90
2023-04-26T06:46:49.605Z,99.90
2023-04-26T06:49:22.148Z,99.90
2023-04-26T06:51:54.307Z,99.90
2023-04-26T06:54:29.604Z,99.90
2023-04-26T06:57:01.632Z,99.90
2023-04-26T06:59:33.402Z,99.90
2023-04-26T07:02:05.052Z,99.90
2023-04-26T07:04:36.937Z,99.90
2023-04-26T07:07:10.533Z,99.90
2023-04-26T07:09:42.128Z,99.90
2023-04-26T07:12:14.528Z,99.90
2023-04-26T07:14:46.167Z,99.90
2023-04-26T07:17:17.682Z,99.90
2023-04-26T07:19:49.188Z,99.90
2023-04-26T07:22:20.936Z,99.90
2023-04-26T07:24:52.994Z,99.90
2023-04-26T07:27:25.096Z,99.90
2023-04-26T07:29:57.352Z,99.90
2023-04-26T07:32:28.936Z,99.90
2023-04-26T07:35:00.595Z,99.90
2023-04-26T07:37:32.144Z,99.90
2023-04-26T07:40:05.105Z,99.90
2023-04-26T07:42:36.593Z,99.90
2023-04-26T07:45:10.626Z,99.90
2023-04-26T07:47:42.078Z,99.90
2023-04-26T07:50:14.152Z,99.90
2023-04-26T07:52:46.016Z,99.90
2023-04-26T07:55:17.901Z,99.90
2023-04-26T07:57:49.652Z,99.90
2023-04-26T08:00:22.980Z,99.90
2023-04-26T08:02:55.602Z,99.90
2023-04-26T08:05:27.870Z,99.90
2023-04-26T08:08:00.933Z,99.90
2023-04-26T08:10:32.398Z,99.90
2023-04-26T08:13:03.888Z,99.90
2023-04-26T08:15:36.246Z,99.90
2023-04-26T08:18:07.920Z,99.90
2023-04-26T08:20:40.256Z,99.90
2023-04-26T08:23:12.505Z,99.90
2023-04-26T08:25:44.810Z,99.90
2023-04-26T08:28:17.658Z,99.90
2023-04-26T08:30:49.703Z,99.90
2023-04-26T08:33:21.600Z,99.90
2023-04-26T08:35:53.276Z,99.90
2023-04-26T08:38:25.351Z,99.90
2023-04-26T08:41:01.318Z,99.90
2023-04-26T08:43:34.326Z,99.90
2023-04-26T08:46:09.198Z,99.90
2023-04-26T08:48:41.394Z,99.90
2023-04-26T08:51:15.994Z,99.90
2023-04-26T08:53:48.551Z,99.90
2023-04-26T08:56:20.124Z,99.90
2023-04-26T08:58:52.380Z,99.90
2023-04-26T09:01:25.963Z,99.90
2023-04-26T09:04:01.518Z,99.90
2023-04-26T09:06:35.723Z,99.90
2023-04-26T09:09:10.081Z,99.90
2023-04-26T09:11:59.631Z,99.90
2023-04-26T09:14:31.252Z,99.90
2023-04-26T09:17:03.182Z,99.90
2023-04-26T09:19:39.186Z,99.90
2023-04-26T09:22:11.620Z,99.90
2023-04-26T09:24:52.089Z,99.90
2023-04-26T09:27:25.307Z,99.90
2023-04-26T09:30:01.014Z,99.90
2023-04-26T09:32:47.948Z,99.90
2023-04-26T09:35:33.735Z,99.90
2023-04-26T09:38:12.220Z,99.90
2023-04-26T09:40:43.175Z,99.90
2023-04-26T09:43:16.164Z,99.90
2023-04-26T09:45:50.470Z,99.90
2023-04-26T09:48:23.540Z,99.90
2023-04-26T09:50:56.551Z,99.90
2023-04-26T09:53:31.146Z,99.90
2023-04-26T09:56:10.140Z,99.90
2023-04-26T09:58:44.831Z,99.90
2023-04-26T10:01:19.067Z,99.90
2023-04-26T10:03:51.490Z,99.90
2023-04-26T10:06:24.207Z,99.90
2023-04-26T10:08:56.495Z,99.90
2023-04-26T10:11:29.390Z,99.90
2023-04-26T10:14:00.966Z,99.90
2023-04-26T10:16:33.585Z,99.90
2023-04-26T10:19:05.249Z,99.90
2023-04-26T10:21:39.517Z,99.90
2023-04-26T10:24:12.552Z,99.90
2023-04-26T10:26:51.906Z,99.90
2023-04-26T10:29:24.042Z,99.90
2023-04-26T10:32:09.430Z,99.90
2023-04-26T10:34:41.843Z,99.90
2023-04-26T10:37:18.288Z,99.90
2023-04-26T10:39:50.209Z,99.90
2023-04-26T10:42:27.958Z,99.90
2023-04-26T10:45:00.884Z,99.90
2023-04-26T10:47:35.005Z,99.90
2023-04-26T10:50:09.806Z,99.90
2023-04-26T10:53:03.732Z,99.90
2023-04-26T10:55:42.691Z,99.90
2023-04-26T11:01:28.315Z,99.90
2023-04-26T11:04:09.790Z,99.90
2023-04-26T11:06:52.061Z,99.90
2023-04-26T11:09:37.132Z,99.10
2023-04-26T11:12:12.050Z,96.20
2023-04-26T11:14:44.335Z,94.70
2023-04-26T11:17:16.071Z,97.40
2023-04-26T11:19:48.814Z,97.50
2023-04-26T11:22:23.518Z,96.30
2023-04-26T11:24:54.973Z,96.20
2023-04-26T11:27:28.899Z,96.50
2023-04-26T11:30:01.917Z,94.50
2023-04-26T11:32:34.192Z,95.20
2023-04-26T11:35:06.304Z,96.30
2023-04-26T11:37:37.911Z,95.60
2023-04-26T11:40:12.420Z,96.00
2023-04-26T11:42:44.314Z,97.30
2023-04-26T11:45:17.543Z,96.90
2023-04-26T11:47:49.895Z,98.90
2023-04-26T11:50:24.580Z,97.40
2023-04-26T11:52:58.115Z,97.70
2023-04-26T11:55:33.235Z,97.90
2023-04-26T11:58:13.129Z,96.80
2023-04-26T12:01:02.223Z,97.50
2023-04-26T12:03:37.757Z,98.00
2023-04-26T12:06:09.894Z,98.50
2023-04-26T12:08:41.503Z,97.40
2023-04-26T12:11:14.477Z,97.10
2023-04-26T12:13:47.589Z,95.40
2023-04-26T12:16:26.126Z,95.80
2023-04-26T12:18:53.727Z,94.90
2023-04-26T12:21:30.765Z,96.70
2023-04-26T12:24:01.886Z,94.20
2023-04-26T12:26:46.394Z,94.40
2023-04-26T12:29:21.490Z,94.60
2023-04-26T12:31:55.411Z,96.30
2023-04-26T12:34:27.281Z,96.30
2023-04-26T12:36:59.043Z,97.10
2023-04-26T12:39:30.650Z,96.20
2023-04-26T12:42:03.202Z,96.00
2023-04-26T12:44:35.295Z,95.90
2023-04-26T12:47:07.092Z,96.30
2023-04-26T12:49:38.569Z,96.70
2023-04-26T12:52:10.074Z,96.40
2023-04-26T12:54:41.698Z,95.20
2023-04-26T12:57:14.176Z,95.80
2023-04-26T12:59:45.733Z,96.30
2023-04-26T13:02:17.492Z,96.40
2023-04-26T13:04:50.956Z,96.00
2023-04-26T13:07:24.013Z,95.30
2023-04-26T13:09:55.534Z,96.00
2023-04-26T13:12:27.097Z,94.30
2023-04-26T13:14:58.545Z,94.50
2023-04-26T13:17:30.176Z,96.40
2023-04-26T13:20:01.784Z,94.80
2023-04-26T13:22:33.500Z,94.40
2023-04-26T13:25:05.513Z,94.60
2023-04-26T13:27:37.327Z,94.70
2023-04-26T13:30:11.410Z,94.80
2023-04-26T13:32:43.979Z,94.60
2023-04-26T13:35:15.609Z,94.70
2023-04-26T13:37:47.602Z,95.00
2023-04-26T13:40:20.963Z,96.30
2023-04-26T13:42:52.532Z,96.30
2023-04-26T13:45:23.949Z,95.60
2023-04-26T13:47:55.750Z,95.70
2023-04-26T13:50:28.003Z,95.00
2023-04-26T13:53:01.775Z,93.40
2023-04-26T13:55:33.387Z,94.10
2023-04-26T13:58:04.937Z,94.70
2023-04-26T14:00:37.666Z,93.70
2023-04-26T14:03:10.009Z,94.40
2023-04-26T14:05:41.950Z,95.80
2023-04-26T14:08:13.860Z,95.10
2023-04-26T14:10:45.726Z,93.90
2023-04-26T14:13:17.448Z,93.80
2023-04-26T14:15:49.169Z,93.70
2023-04-26T14:18:20.767Z,93.20
2023-04-26T14:20:52.237Z,93.50
2023-04-26T14:23:24.022Z,93.90
2023-04-26T14:25:55.695Z,93.60
2023-04-26T14:28:27.418Z,93.60
2023-04-26T14:30:59.036Z,93.30
2023-04-26T14:33:30.747Z,94.00
2023-04-26T14:36:02.344Z,93.70
2023-04-26T14:38:34.053Z,94.80
2023-04-26T14:41:05.607Z,93.60
2023-04-26T14:43:37.157Z,93.30
2023-04-26T14:46:08.579Z,93.80
2023-04-26T14:48:40.227Z,94.90
2023-04-26T14:51:11.809Z,94.80
2023-04-26T14:53:43.578Z,94.40
2023-04-26T14:56:14.978Z,94.40
2023-04-26T14:58:46.684Z,94.60
2023-04-26T15:01:18.099Z,93.60
2023-04-26T15:03:49.877Z,94.30
2023-04-26T15:06:21.589Z,95.00
2023-04-26T15:08:53.205Z,95.10
2023-04-26T15:11:24.603Z,94.20
2023-04-26T15:13:56.094Z,94.50
2023-04-26T15:16:27.780Z,94.70
2023-04-26T15:18:59.240Z,94.30
2023-04-26T15:21:31.521Z,94.80
2023-04-26T15:24:03.006Z,93.30
2023-04-26T15:26:34.872Z,94.20
2023-04-26T15:29:06.353Z,94.30
2023-04-26T15:31:37.943Z,95.80
2023-04-26T15:34:09.652Z,94.60
2023-04-26T15:36:41.264Z,95.50
2023-04-26T15:39:12.951Z,95.00
2023-04-26T15:41:45.212Z,94.80
2023-04-26T15:44:16.619Z,95.50
2023-04-26T15:46:48.208Z,95.80
2023-04-26T15:49:19.620Z,96.80
2023-04-26T15:51:51.175Z,95.80
2023-04-26T15:54:22.624Z,95.50
2023-04-26T15:56:55.353Z,94.80
2023-04-26T15:59:27.129Z,94.80
2023-04-26T16:01:58.934Z,95.60
2023-04-26T16:04:31.798Z,96.70
2023-04-26T16:07:04.535Z,96.60
2023-04-26T16:09:36.054Z,96.40
2023-04-26T16:12:08.755Z,96.00
2023-04-26T16:14:41.033Z,96.10
2023-04-26T16:17:12.644Z,96.20
2023-04-26T16:19:44.127Z,96.40
2023-04-26T16:22:16.923Z,96.10
2023-04-26T16:24:48.363Z,96.60
2023-04-26T16:27:21.045Z,96.10
2023-04-26T16:29:54.360Z,95.40
2023-04-26T16:32:26.639Z,96.10
2023-04-26T16:34:58.272Z,96.30
2023-04-26T16:37:29.973Z,97.50
2023-04-26T16:40:01.728Z,98.70
2023-04-26T16:42:33.434Z,98.60
2023-04-26T16:45:06.257Z,98.80
2023-04-26T16:47:37.849Z,99.40
2023-04-26T16:50:10.606Z,99.90
2023-04-26T16:52:42.152Z,99.90
2023-04-26T16:55:14.547Z,99.90
2023-04-26T16:57:46.287Z,99.90
2023-04-26T17:00:19.546Z,99.90
2023-04-26T17:02:52.603Z,99.90
2023-04-26T17:05:24.527Z,99.90
2023-04-26T17:07:56.747Z,99.90
2023-04-26T17:10:30.317Z,99.90
2023-04-26T17:13:03.105Z,99.90
2023-04-26T17:15:36.162Z,99.90
2023-04-26T17:18:08.482Z,99.90
2023-04-26T17:20:41.167Z,99.90
2023-04-26T17:23:12.781Z,99.90
2023-04-26T17:25:45.357Z,99.90
2023-04-26T17:28:16.990Z,99.90
2023-04-26T17:30:48.636Z,99.90
2023-04-26T17:33:20.342Z,99.90
2023-04-26T17:35:52.050Z,99.90
2023-04-26T17:38:23.463Z,99.90
2023-04-26T17:40:55.532Z,99.90
2023-04-26T17:43:27.021Z,99.90
2023-04-26T17:45:58.639Z,99.90
2023-04-26T17:48:30.229Z,99.90
2023-04-26T17:51:01.815Z,99.90
2023-04-26T17:53:33.274Z,99.90
2023-04-26T17:56:06.448Z,99.90
2023-04-26T17:58:38.011Z,99.90
2023-04-26T18:01:09.554Z,99.90
2023-04-26T18:03:43.111Z,99.90
2023-04-26T18:06:24.012Z,99.90
2023-04-26T18:08:55.602Z,99.90
2023-04-26T18:11:27.270Z,99.90
2023-04-26T18:13:58.944Z,99.90
2023-04-26T18:16:31.056Z,99.90
2023-04-26T18:19:02.432Z,99.90
2023-04-26T18:21:34.006Z,99.90
2023-04-26T18:24:07.317Z,99.90
2023-04-26T18:26:40.485Z,99.90
2023-04-26T18:29:12.916Z,99.90
2023-04-26T18:31:44.535Z,99.90
2023-04-26T18:34:16.390Z,99.90
2023-04-26T18:36:48.005Z,99.90
2023-04-26T18:39:19.427Z,99.90
2023-04-26T18:41:53.048Z,99.90
2023-04-26T18:44:24.441Z,99.90
2023-04-26T18:46:56.332Z,99.90
2023-04-26T18:49:27.933Z,99.90
2023-04-26T18:51:59.610Z,99.90
2023-04-26T18:54:32.997Z,99.90
2023-04-26T18:57:04.921Z,99.90
2023-04-26T18:59:36.406Z,99.90
2023-04-26T19:02:08.074Z,99.90
2023-04-26T19:04:40.331Z,99.90
2023-04-26T19:07:12.174Z,99.90
2023-04-26T19:09:53.563Z,99.90
2023-04-26T19:12:16.777Z,99.90
2023-04-26T19:14:50.131Z,99.90
2023-04-26T19:17:21.936Z,99.90
2023-04-26T19:19:54.911Z,99.90
2023-04-26T19:22:27.091Z,99.90
2023-04-26T19:24:58.557Z,99.90
2023-04-26T19:27:30.121Z,99.90
2023-04-26T19:30:01.771Z,99.90
2023-04-26T19:32:33.375Z,99.90
2023-04-26T19:35:06.127Z,99.90
2023-04-26T19:37:37.913Z,99.90
2023-04-26T19:40:12.050Z,99.90
2023-04-26T19:42:43.799Z,99.90
2023-04-26T19:45:17.028Z,99.90
2023-04-26T19:47:49.852Z,99.90
2023-04-26T19:50:21.586Z,99.90
2023-04-26T19:52:53.144Z,99.90
2023-04-26T19:55:26.621Z,99.90
2023-04-26T19:57:59.794Z,99.90
2023-04-26T20:00:31.565Z,99.90
2023-04-26T20:03:03.822Z,99.90
2023-04-26T20:05:35.759Z,99.90
2023-04-26T20:08:07.320Z,99.90
2023-04-26T20:10:39.059Z,99.90
2023-04-26T20:13:10.642Z,99.90
2023-04-26T20:15:42.540Z,99.90
2023-04-26T20:18:14.982Z,99.90
2023-04-26T20:20:47.768Z,99.90
2023-04-26T20:23:20.282Z,99.90
2023-04-26T20:25:52.767Z,99.90
2023-04-26T20:28:24.285Z,99.90
2023-04-26T20:30:55.851Z,99.90
2023-04-26T20:33:27.851Z,99.90
2023-04-26T20:35:59.666Z,99.90
2023-04-26T20:38:31.127Z,99.90
2023-04-26T20:41:04.733Z,99.90
2023-04-26T20:43:36.166Z,99.90
2023-04-26T20:46:08.295Z,99.90
2023-04-26T20:48:40.104Z,99.90
2023-04-26T20:51:11.652Z,99.90
2023-04-26T20:53:43.769Z,99.90
2023-04-26T20:56:16.234Z,99.90
2023-04-26T20:58:47.639Z,99.90
2023-04-26T21:01:19.317Z,99.90
2023-04-26T21:03:54.484Z,99.90
2023-04-26T21:06:25.837Z,99.90
2023-04-26T21:08:57.321Z,99.90
2023-04-26T21:11:28.874Z,99.90
2023-04-26T21:14:00.919Z,99.90
2023-04-26T21:16:32.472Z,99.90
2023-04-26T21:19:04.934Z,99.90
2023-04-26T21:21:36.702Z,99.90
2023-04-26T21:24:08.570Z,99.90
2023-04-26T21:26:41.137Z,99.90
2023-04-26T21:29:12.955Z,99.90
2023-04-26T21:31:44.634Z,99.90
2023-04-26T21:34:16.270Z,99.90
2023-04-26T21:36:47.795Z,99.90
2023-04-26T21:39:19.391Z,99.90
2023-04-26T21:41:50.979Z,99.90
2023-04-26T21:44:22.912Z,99.90
2023-04-26T21:46:54.559Z,99.90
2023-04-26T21:49:26.017Z,99.90
2023-04-26T21:51:57.523Z,99.90
2023-04-26T21:54:28.998Z,99.90
2023-04-26T21:57:01.441Z,99.90
2023-04-26T21:59:33.144Z,99.90
2023-04-26T22:02:06.813Z,99.90
2023-04-26T22:04:38.326Z,99.90
2023-04-26T22:07:09.736Z,99.90
2023-04-26T22:09:41.505Z,99.90
2023-04-26T22:12:12.963Z,99.90
2023-04-26T22:14:44.470Z,99.90
2023-04-26T22:17:16.661Z,99.90
2023-04-26T22:19:49.221Z,99.90
2023-04-26T22:22:20.654Z,99.90
2023-04-26T22:24:52.923Z,99.90
2023-04-26T22:27:24.810Z,99.90
2023-04-26T22:29:57.434Z,99.90
2023-04-26T22:32:29.083Z,99.90
2023-04-26T22:35:00.574Z,99.90
2023-04-26T22:37:32.452Z,99.90
2023-04-26T22:40:04.222Z,99.90
2023-04-26T22:42:35.702Z,99.90
2023-04-26T22:45:09.755Z,99.90
2023-04-26T22:47:42.135Z,99.90
2023-04-26T22:50:14.843Z,99.90
2023-04-26T22:52:46.249Z,99.90
2023-04-26T22:55:17.832Z,99.90
2023-04-26T22:57:49.307Z,99.90
2023-04-26T23:00:22.571Z,99.90
2023-04-26T23:02:55.303Z,99.90
2023-04-26T23:05:33.788Z,99.90
2023-04-26T23:08:05.495Z,99.90
2023-04-26T23:10:52.427Z,99.90
2023-04-26T23:13:25.459Z,99.90
2023-04-26T23:15:57.100Z,99.90
2023-04-26T23:18:28.619Z,99.90
2023-04-26T23:21:00.129Z,99.90
2023-04-26T23:23:32.677Z,99.90
2023-04-26T23:26:08.499Z,99.90
2023-04-26T23:28:39.804Z,99.90
2023-04-26T23:31:11.921Z,99.90
2023-04-26T23:33:43.490Z,99.90
2023-04-26T23:36:15.060Z,99.90
2023-04-26T23:38:46.742Z,99.90
2023-04-26T23:41:18.306Z,99.90
2023-04-26T23:43:49.731Z,99.90
2023-04-26T23:46:22.311Z,99.90
2023-04-26T23:48:53.932Z,99.90
2023-04-26T23:51:26.490Z,99.90
2023-04-26T23:53:57.930Z,99.90
2023-04-26T23:56:29.515Z,99.90
2023-04-26T23:59:00.936Z,99.90
